Airfield :
LOGIN :

Register | Disclaimer

   EN    FR    IT 

 










Legend :    VFR   Marginal VFR   IFR   Intensive IFR   Very Intensive IFR
Visi :
Ceiling :
>= 8 km
>= 3000ft
5 to 8 km
1000 to 3000 ft
1500m to 5 km
500 to 1000 ft
800 to 1500m
200 to 500 ft
< 800m
< 200 ft
Symbols :   Thunderstorms  Fog  Heavy snow  Heavy precipitations  Wind > 20 kt
SIGMETs :     Misc.  Thunderstorms  Icing  Turbulence  Mountain Waves  Volcanic Ashes






- Airport Elevation : 423 ft
- IATA code : PIS


LFBI - Poitiers

CURRENT METAR :
  • 141200Z AUTO 22019KT 9999 BKN029 BKN037 BKN044 21/14 Q1010 BECMG 24015G25KT

EXPIRED METARs :
  • 141130Z AUTO 22013G24KT 180V240 9999 SCT024 BKN030 BKN038 21/16 Q1010 TEMPO 4500 -SHRA SCT020TCU
  • 141100Z AUTO 22017KT 9999 SCT025 BKN030 BKN038 20/15 Q1010 TEMPO 24015G27KT
  • 141030Z AUTO 22017KT 9999 BKN029 BKN035 20/14 Q1010 TEMPO 24015G27KT
  • 141000Z AUTO 23014KT 200V260 9999 BKN033 20/13 Q1010 NOSIG
  • 140930Z AUTO 22013KT 9999 SCT025 BKN031 BKN040 19/14 Q1011 NOSIG
  • 140900Z AUTO 23013KT 9999 BKN021 BKN026 BKN033 18/13 Q1011 NOSIG
  • 140830Z AUTO 24014KT 9999 BKN020 BKN029 OVC088 17/14 Q1011 NOSIG
  • 140800Z AUTO 22013KT 9999 FEW015 BKN021 BKN029 17/14 Q1011 NOSIG
  • 140730Z AUTO 23011KT 9999 SCT009 BKN017 BKN024 17/15 Q1011 NOSIG

TAF TAF LFBI
Valid from the 14 at 12:00 until the 15 at 12:00 UTC


141100Z 1412/1512 24015G25KT 9999 BKN025
TEMPO 1418/1501 3000 SHRA BKN020TCU
BECMG 1500/1502 23007KT
BECMG 1507/1509 24014G25KT
TEMPO 1509/1512 3000 SHRA BKN025TCU



MET'MAP, your aeronautical weather chart ! - Copyright ORBIFLY December 2007 - Disclaimer

ORBIFLY MET'MAP TEAM :

Programming & Development : Alexandra Zaïnal
Original concept : Baudouin d'Aumeries
Technical & hardware support : Manuel Goepfert
Assistance : Marc-Olivier Méhu




SOURCES & CREDITS :

   NOAA